sensor_id;sensor_type;location;lat;lon;timestamp;P1;durP1;ratioP1;P2;durP2;ratioP2
2610;SDS011;5612;51.134;17.058;2022-09-09T04:27:38;18.63;;;16.73;;
2610;SDS011;5612;51.134;17.058;2022-09-09T04:30:28;16.63;;;15.33;;
2610;SDS011;5612;51.134;17.058;2022-09-09T04:33:06;16.90;;;15.40;;
2610;SDS011;5612;51.134;17.058;2022-09-09T04:35:35;19.10;;;15.50;;
2610;SDS011;5612;51.134;17.058;2022-09-09T04:38:04;18.53;;;17.03;;
2610;SDS011;5612;51.134;17.058;2022-09-09T04:40:34;17.43;;;15.87;;
2610;SDS011;5612;51.134;17.058;2022-09-09T04:43:04;17.50;;;16.00;;
2610;SDS011;5612;51.134;17.058;2022-09-09T04:45:39;19.33;;;17.43;;
2610;SDS011;5612;51.134;17.058;2022-09-09T04:48:08;17.33;;;15.90;;
2610;SDS011;5612;51.134;17.058;2022-09-09T04:50:38;17.97;;;16.43;;
2610;SDS011;5612;51.134;17.058;2022-09-09T04:53:08;17.20;;;15.70;;
2610;SDS011;5612;51.134;17.058;2022-09-09T04:55:39;18.83;;;17.33;;
2610;SDS011;5612;51.134;17.058;2022-09-09T04:58:11;19.23;;;17.33;;
2610;SDS011;5612;51.134;17.058;2022-09-09T05:00:40;17.80;;;16.10;;
2610;SDS011;5612;51.134;17.058;2022-09-09T05:03:09;18.90;;;17.20;;
2610;SDS011;5612;51.134;17.058;2022-09-09T05:05:39;17.57;;;15.97;;
2610;SDS011;5612;51.134;17.058;2022-09-09T05:08:08;19.13;;;17.50;;
2610;SDS011;5612;51.134;17.058;2022-09-09T05:10:37;19.17;;;17.47;;
2610;SDS011;5612;51.134;17.058;2022-09-09T05:13:08;19.67;;;17.90;;
2610;SDS011;5612;51.134;17.058;2022-09-09T05:15:39;19.07;;;17.47;;
2610;SDS011;5612;51.134;17.058;2022-09-09T05:18:09;18.50;;;16.80;;
2610;SDS011;5612;51.134;17.058;2022-09-09T05:20:38;19.67;;;17.77;;
2610;SDS011;5612;51.134;17.058;2022-09-09T05:23:09;23.80;;;21.50;;
2610;SDS011;5612;51.134;17.058;2022-09-09T05:25:39;24.43;;;21.80;;
2610;SDS011;5612;51.134;17.058;2022-09-09T05:28:08;25.67;;;22.87;;
2610;SDS011;5612;51.134;17.058;2022-09-09T05:30:39;27.23;;;24.63;;
2610;SDS011;5612;51.134;17.058;2022-09-09T05:33:08;30.93;;;25.20;;
2610;SDS011;5612;51.134;17.058;2022-09-09T05:35:36;25.10;;;22.67;;
2610;SDS011;5612;51.134;17.058;2022-09-09T05:38:05;26.10;;;23.00;;
2610;SDS011;5612;51.134;17.058;2022-09-09T05:40:35;24.33;;;22.03;;
2610;SDS011;5612;51.134;17.058;2022-09-09T05:43:03;25.07;;;22.53;;
2610;SDS011;5612;51.134;17.058;2022-09-09T05:45:32;24.20;;;21.97;;
2610;SDS011;5612;51.134;17.058;2022-09-09T05:48:03;23.80;;;21.40;;
2610;SDS011;5612;51.134;17.058;2022-09-09T05:50:32;22.63;;;20.60;;
2610;SDS011;5612;51.134;17.058;2022-09-09T05:53:01;24.07;;;21.67;;
2610;SDS011;5612;51.134;17.058;2022-09-09T05:55:30;23.13;;;21.00;;
2610;SDS011;5612;51.134;17.058;2022-09-09T05:57:59;23.30;;;21.23;;
2610;SDS011;5612;51.134;17.058;2022-09-09T06:00:29;25.10;;;22.97;;
2610;SDS011;5612;51.134;17.058;2022-09-09T06:02:59;23.00;;;21.10;;
2610;SDS011;5612;51.134;17.058;2022-09-09T06:05:30;23.60;;;21.20;;
2610;SDS011;5612;51.134;17.058;2022-09-09T06:08:01;18.80;;;17.33;;
2610;SDS011;5612;51.134;17.058;2022-09-09T06:10:30;19.47;;;17.90;;
2610;SDS011;5612;51.134;17.058;2022-09-09T06:12:59;18.77;;;17.37;;
2610;SDS011;5612;51.134;17.058;2022-09-09T06:15:27;16.30;;;14.90;;
2610;SDS011;5612;51.134;17.058;2022-09-09T06:17:58;16.17;;;14.97;;
2610;SDS011;5612;51.134;17.058;2022-09-09T06:20:27;13.87;;;12.80;;
2610;SDS011;5612;51.134;17.058;2022-09-09T06:22:58;14.53;;;13.07;;
2610;SDS011;5612;51.134;17.058;2022-09-09T06:25:27;13.07;;;11.83;;
2610;SDS011;5612;51.134;17.058;2022-09-09T06:27:56;14.30;;;12.90;;
2610;SDS011;5612;51.134;17.058;2022-09-09T06:30:24;14.63;;;13.20;;
2610;SDS011;5612;51.134;17.058;2022-09-09T06:32:55;14.57;;;13.07;;
2610;SDS011;5612;51.134;17.058;2022-09-09T06:35:24;11.50;;;10.70;;
2610;SDS011;5612;51.134;17.058;2022-09-09T06:37:53;10.47;;;9.67;;
2610;SDS011;5612;51.134;17.058;2022-09-09T06:40:23;8.20;;;7.50;;
2610;SDS011;5612;51.134;17.058;2022-09-09T06:42:52;10.13;;;7.33;;
2610;SDS011;5612;51.134;17.058;2022-09-09T06:45:20;8.70;;;7.80;;
2610;SDS011;5612;51.134;17.058;2022-09-09T06:47:49;7.30;;;6.70;;
2610;SDS011;5612;51.134;17.058;2022-09-09T06:50:18;11.37;;;6.20;;
2610;SDS011;5612;51.134;17.058;2022-09-09T06:52:47;8.27;;;7.50;;
2610;SDS011;5612;51.134;17.058;2022-09-09T06:55:16;8.67;;;7.97;;
2610;SDS011;5612;51.134;17.058;2022-09-09T06:57:46;8.00;;;7.20;;
2610;SDS011;5612;51.134;17.058;2022-09-09T07:00:15;7.03;;;6.53;;
2610;SDS011;5612;51.134;17.058;2022-09-09T07:02:44;5.87;;;5.23;;
2610;SDS011;5612;51.134;17.058;2022-09-09T07:05:13;6.57;;;4.83;;
2610;SDS011;5612;51.134;17.058;2022-09-09T07:07:42;4.23;;;3.93;;
2610;SDS011;5612;51.134;17.058;2022-09-09T07:10:11;5.03;;;4.50;;
2610;SDS011;5612;51.134;17.058;2022-09-09T07:12:39;4.13;;;3.37;;
2610;SDS011;5612;51.134;17.058;2022-09-09T07:15:09;3.73;;;3.50;;
2610;SDS011;5612;51.134;17.058;2022-09-09T07:17:38;3.10;;;2.90;;
2610;SDS011;5612;51.134;17.058;2022-09-09T07:20:09;3.37;;;3.17;;
2610;SDS011;5612;51.134;17.058;2022-09-09T07:22:38;3.93;;;3.70;;
2610;SDS011;5612;51.134;17.058;2022-09-09T07:25:08;4.13;;;3.23;;
2610;SDS011;5612;51.134;17.058;2022-09-09T07:27:36;3.63;;;3.43;;
2610;SDS011;5612;51.134;17.058;2022-09-09T07:30:06;2.97;;;2.77;;
2610;SDS011;5612;51.134;17.058;2022-09-09T07:32:37;5.60;;;3.03;;
2610;SDS011;5612;51.134;17.058;2022-09-09T07:35:07;3.30;;;3.10;;
2610;SDS011;5612;51.134;17.058;2022-09-09T07:37:36;4.20;;;3.30;;
2610;SDS011;5612;51.134;17.058;2022-09-09T07:40:05;3.80;;;2.90;;
2610;SDS011;5612;51.134;17.058;2022-09-09T07:42:35;2.90;;;2.53;;
2610;SDS011;5612;51.134;17.058;2022-09-09T07:45:04;2.78;;;2.67;;
2610;SDS011;5612;51.134;17.058;2022-09-09T07:47:33;3.08;;;2.80;;
2610;SDS011;5612;51.134;17.058;2022-09-09T07:50:04;2.90;;;2.70;;
2610;SDS011;5612;51.134;17.058;2022-09-09T07:52:33;2.90;;;2.70;;
2610;SDS011;5612;51.134;17.058;2022-09-09T07:55:03;2.25;;;2.05;;
2610;SDS011;5612;51.134;17.058;2022-09-09T07:57:32;2.30;;;2.20;;
2610;SDS011;5612;51.134;17.058;2022-09-09T08:00:02;2.30;;;2.05;;
2610;SDS011;5612;51.134;17.058;2022-09-09T08:02:32;2.55;;;2.35;;
2610;SDS011;5612;51.134;17.058;2022-09-09T08:05:01;2.60;;;2.15;;
2610;SDS011;5612;51.134;17.058;2022-09-09T08:07:31;2.40;;;2.25;;
2610;SDS011;5612;51.134;17.058;2022-09-09T08:10:00;2.30;;;2.10;;
2610;SDS011;5612;51.134;17.058;2022-09-09T08:12:28;1.75;;;1.67;;
2610;SDS011;5612;51.134;17.058;2022-09-09T08:14:57;3.10;;;2.28;;
2610;SDS011;5612;51.134;17.058;2022-09-09T08:17:26;2.28;;;2.17;;
2610;SDS011;5612;51.134;17.058;2022-09-09T08:19:55;2.65;;;2.42;;
2610;SDS011;5612;51.134;17.058;2022-09-09T08:22:24;2.08;;;1.65;;
2610;SDS011;5612;51.134;17.058;2022-09-09T08:24:55;4.63;;;1.92;;
2610;SDS011;5612;51.134;17.058;2022-09-09T08:27:24;2.05;;;1.95;;
2610;SDS011;5612;51.134;17.058;2022-09-09T08:29:53;3.47;;;2.30;;
2610;SDS011;5612;51.134;17.058;2022-09-09T08:32:22;3.28;;;2.05;;
2610;SDS011;5612;51.134;17.058;2022-09-09T08:34:51;3.70;;;2.10;;
2610;SDS011;5612;51.134;17.058;2022-09-09T08:37:20;5.75;;;2.00;;
2610;SDS011;5612;51.134;17.058;2022-09-09T08:39:49;2.00;;;1.90;;
2610;SDS011;5612;51.134;17.058;2022-09-09T08:42:35;2.25;;;1.73;;
2610;SDS011;5612;51.134;17.058;2022-09-09T08:45:16;1.95;;;1.73;;
2610;SDS011;5612;51.134;17.058;2022-09-09T08:48:05;2.60;;;2.13;;
2610;SDS011;5612;51.134;17.058;2022-09-09T08:50:48;1.77;;;1.67;;
2610;SDS011;5612;51.134;17.058;2022-09-09T08:53:19;2.55;;;2.10;;
2610;SDS011;5612;51.134;17.058;2022-09-09T08:55:53;3.78;;;1.95;;
2610;SDS011;5612;51.134;17.058;2022-09-09T08:58:27;1.50;;;1.48;;
2610;SDS011;5612;51.134;17.058;2022-09-09T09:03:54;2.83;;;1.73;;
2610;SDS011;5612;51.134;17.058;2022-09-09T09:06:35;2.65;;;1.60;;
2610;SDS011;5612;51.134;17.058;2022-09-09T09:09:12;2.30;;;2.20;;
2610;SDS011;5612;51.134;17.058;2022-09-09T09:11:47;2.30;;;1.73;;
2610;SDS011;5612;51.134;17.058;2022-09-09T09:14:21;1.70;;;1.60;;
2610;SDS011;5612;51.134;17.058;2022-09-09T09:16:52;1.77;;;1.60;;
2610;SDS011;5612;51.134;17.058;2022-09-09T09:19:26;2.38;;;1.65;;
2610;SDS011;5612;51.134;17.058;2022-09-09T09:21:58;1.75;;;1.65;;
2610;SDS011;5612;51.134;17.058;2022-09-09T09:24:35;2.17;;;1.98;;
2610;SDS011;5612;51.134;17.058;2022-09-09T09:27:12;1.60;;;1.50;;
2610;SDS011;5612;51.134;17.058;2022-09-09T09:29:45;1.90;;;1.80;;
2610;SDS011;5612;51.134;17.058;2022-09-09T09:32:38;1.70;;;1.70;;
2610;SDS011;5612;51.134;17.058;2022-09-09T09:35:12;2.17;;;1.88;;
2610;SDS011;5612;51.134;17.058;2022-09-09T09:37:42;2.38;;;1.65;;
2610;SDS011;5612;51.134;17.058;2022-09-09T09:40:32;1.95;;;1.80;;
2610;SDS011;5612;51.134;17.058;2022-09-09T09:43:02;2.20;;;2.10;;
2610;SDS011;5612;51.134;17.058;2022-09-09T09:45:41;1.40;;;1.40;;
2610;SDS011;5612;51.134;17.058;2022-09-09T09:48:32;2.13;;;2.03;;
2610;SDS011;5612;51.134;17.058;2022-09-09T09:51:02;1.90;;;1.50;;
2610;SDS011;5612;51.134;17.058;2022-09-09T09:53:37;2.47;;;1.70;;
2610;SDS011;5612;51.134;17.058;2022-09-09T09:56:08;1.67;;;1.58;;
2610;SDS011;5612;51.134;17.058;2022-09-09T09:58:51;1.75;;;1.65;;
2610;SDS011;5612;51.134;17.058;2022-09-09T10:01:23;2.17;;;1.98;;
2610;SDS011;5612;51.134;17.058;2022-09-09T10:04:00;2.08;;;1.77;;
2610;SDS011;5612;51.134;17.058;2022-09-09T10:06:32;1.60;;;1.50;;
2610;SDS011;5612;51.134;17.058;2022-09-09T10:09:03;1.67;;;1.58;;
2610;SDS011;5612;51.134;17.058;2022-09-09T10:11:49;1.52;;;1.42;;
2610;SDS011;5612;51.134;17.058;2022-09-09T10:14:24;2.42;;;2.30;;
2610;SDS011;5612;51.134;17.058;2022-09-09T10:17:07;1.50;;;1.40;;
2610;SDS011;5612;51.134;17.058;2022-09-09T10:19:46;2.08;;;1.92;;
2610;SDS011;5612;51.134;17.058;2022-09-09T10:22:26;1.60;;;1.48;;
2610;SDS011;5612;51.134;17.058;2022-09-09T10:27:52;2.58;;;1.65;;
2610;SDS011;5612;51.134;17.058;2022-09-09T10:30:41;3.50;;;1.25;;
2610;SDS011;5612;51.134;17.058;2022-09-09T10:33:25;1.67;;;1.58;;
2610;SDS011;5612;51.134;17.058;2022-09-09T10:36:02;2.53;;;1.77;;
2610;SDS011;5612;51.134;17.058;2022-09-09T10:38:39;3.05;;;1.38;;
2610;SDS011;5612;51.134;17.058;2022-09-09T10:41:11;1.60;;;1.50;;
2610;SDS011;5612;51.134;17.058;2022-09-09T10:43:50;3.35;;;1.58;;
2610;SDS011;5612;51.134;17.058;2022-09-09T10:46:44;2.05;;;0.95;;
2610;SDS011;5612;51.134;17.058;2022-09-09T10:49:32;2.88;;;1.35;;
2610;SDS011;5612;51.134;17.058;2022-09-09T10:52:13;1.35;;;1.15;;
2610;SDS011;5612;51.134;17.058;2022-09-09T10:54:52;1.17;;;1.10;;
2610;SDS011;5612;51.134;17.058;2022-09-09T10:57:28;1.35;;;1.25;;
2610;SDS011;5612;51.134;17.058;2022-09-09T11:00:03;1.17;;;1.17;;
2610;SDS011;5612;51.134;17.058;2022-09-09T11:02:35;2.13;;;1.50;;
2610;SDS011;5612;51.134;17.058;2022-09-09T11:05:08;1.30;;;1.23;;
2610;SDS011;5612;51.134;17.058;2022-09-09T11:07:44;1.23;;;1.23;;
2610;SDS011;5612;51.134;17.058;2022-09-09T11:10:21;1.40;;;1.35;;
2610;SDS011;5612;51.134;17.058;2022-09-09T11:13:00;1.60;;;1.50;;
2610;SDS011;5612;51.134;17.058;2022-09-09T11:15:35;1.40;;;1.40;;
2610;SDS011;5612;51.134;17.058;2022-09-09T11:18:10;1.58;;;1.48;;
2610;SDS011;5612;51.134;17.058;2022-09-09T11:20:44;1.17;;;1.13;;
2610;SDS011;5612;51.134;17.058;2022-09-09T11:23:16;1.20;;;1.10;;
2610;SDS011;5612;51.134;17.058;2022-09-09T11:25:51;2.42;;;1.33;;
2610;SDS011;5612;51.134;17.058;2022-09-09T11:28:29;3.70;;;1.58;;
2610;SDS011;5612;51.134;17.058;2022-09-09T11:31:15;1.63;;;1.60;;
2610;SDS011;5612;51.134;17.058;2022-09-09T11:37:03;1.50;;;1.40;;
2610;SDS011;5612;51.134;17.058;2022-09-09T11:40:00;1.40;;;1.40;;
2610;SDS011;5612;51.134;17.058;2022-09-09T11:42:46;1.80;;;1.30;;
2610;SDS011;5612;51.134;17.058;2022-09-09T11:45:20;4.85;;;1.58;;
2610;SDS011;5612;51.134;17.058;2022-09-09T11:47:53;3.00;;;2.00;;
2610;SDS011;5612;51.134;17.058;2022-09-09T11:50:33;1.40;;;1.30;;
2610;SDS011;5612;51.134;17.058;2022-09-09T11:53:19;1.35;;;1.30;;
2610;SDS011;5612;51.134;17.058;2022-09-09T11:56:00;1.30;;;1.30;;
2610;SDS011;5612;51.134;17.058;2022-09-09T11:58:41;2.20;;;1.60;;
2610;SDS011;5612;51.134;17.058;2022-09-09T12:04:14;1.42;;;1.10;;
2610;SDS011;5612;51.134;17.058;2022-09-09T12:06:50;2.55;;;1.58;;
2610;SDS011;5612;51.134;17.058;2022-09-09T12:09:25;3.20;;;1.35;;
2610;SDS011;5612;51.134;17.058;2022-09-09T12:12:07;2.55;;;1.75;;
2610;SDS011;5612;51.134;17.058;2022-09-09T12:14:56;3.72;;;1.25;;
2610;SDS011;5612;51.134;17.058;2022-09-09T12:17:27;1.60;;;1.50;;
2610;SDS011;5612;51.134;17.058;2022-09-09T12:20:08;1.30;;;1.30;;
2610;SDS011;5612;51.134;17.058;2022-09-09T12:22:44;1.27;;;1.20;;
2610;SDS011;5612;51.134;17.058;2022-09-09T12:25:23;2.63;;;1.80;;
2610;SDS011;5612;51.134;17.058;2022-09-09T12:28:01;1.50;;;1.37;;
2610;SDS011;5612;51.134;17.058;2022-09-09T12:30:36;1.50;;;1.40;;
2610;SDS011;5612;51.134;17.058;2022-09-09T12:33:12;2.35;;;1.48;;
2610;SDS011;5612;51.134;17.058;2022-09-09T12:35:49;1.67;;;1.57;;
2610;SDS011;5612;51.134;17.058;2022-09-09T12:38:24;2.70;;;1.70;;
2610;SDS011;5612;51.134;17.058;2022-09-09T12:40:59;1.77;;;1.55;;
2610;SDS011;5612;51.134;17.058;2022-09-09T12:43:28;1.55;;;1.50;;
2610;SDS011;5612;51.134;17.058;2022-09-09T12:45:57;2.15;;;1.25;;
2610;SDS011;5612;51.134;17.058;2022-09-09T12:48:34;1.65;;;1.55;;
2610;SDS011;5612;51.134;17.058;2022-09-09T12:51:06;1.40;;;1.30;;
2610;SDS011;5612;51.134;17.058;2022-09-09T12:53:46;1.42;;;1.30;;
2610;SDS011;5612;51.134;17.058;2022-09-09T12:56:22;2.50;;;1.40;;
2610;SDS011;5612;51.134;17.058;2022-09-09T12:58:53;3.60;;;1.60;;
2610;SDS011;5612;51.134;17.058;2022-09-09T13:01:25;1.58;;;1.40;;
2610;SDS011;5612;51.134;17.058;2022-09-09T13:03:59;1.75;;;1.17;;
2610;SDS011;5612;51.134;17.058;2022-09-09T13:06:29;2.40;;;1.63;;
2610;SDS011;5612;51.134;17.058;2022-09-09T13:08:59;1.50;;;1.40;;
2610;SDS011;5612;51.134;17.058;2022-09-09T13:11:31;1.20;;;1.20;;
2610;SDS011;5612;51.134;17.058;2022-09-09T13:14:06;1.58;;;1.33;;
2610;SDS011;5612;51.134;17.058;2022-09-09T13:16:54;3.08;;;1.48;;
2610;SDS011;5612;51.134;17.058;2022-09-09T13:19:26;4.18;;;1.52;;
2610;SDS011;5612;51.134;17.058;2022-09-09T13:22:00;1.70;;;1.30;;
2610;SDS011;5612;51.134;17.058;2022-09-09T13:24:39;1.88;;;1.30;;
2610;SDS011;5612;51.134;17.058;2022-09-09T13:27:23;1.58;;;1.48;;
2610;SDS011;5612;51.134;17.058;2022-09-09T13:29:55;1.48;;;1.20;;
2610;SDS011;5612;51.134;17.058;2022-09-09T13:32:25;1.40;;;1.30;;
2610;SDS011;5612;51.134;17.058;2022-09-09T13:34:56;1.00;;;1.00;;
2610;SDS011;5612;51.134;17.058;2022-09-09T13:37:28;1.58;;;1.23;;
2610;SDS011;5612;51.134;17.058;2022-09-09T13:40:02;1.02;;;1.02;;
2610;SDS011;5612;51.134;17.058;2022-09-09T13:42:34;1.33;;;1.10;;
2610;SDS011;5612;51.134;17.058;2022-09-09T13:45:14;1.70;;;1.50;;
2610;SDS011;5612;51.134;17.058;2022-09-09T13:47:47;1.65;;;1.55;;
2610;SDS011;5612;51.134;17.058;2022-09-09T13:50:19;1.50;;;1.40;;
2610;SDS011;5612;51.134;17.058;2022-09-09T13:52:52;2.72;;;1.20;;
2610;SDS011;5612;51.134;17.058;2022-09-09T13:55:23;1.08;;;1.02;;
2610;SDS011;5612;51.134;17.058;2022-09-09T13:57:59;1.02;;;1.02;;
2610;SDS011;5612;51.134;17.058;2022-09-09T14:00:29;1.25;;;1.13;;
2610;SDS011;5612;51.134;17.058;2022-09-09T14:02:59;1.45;;;1.35;;
2610;SDS011;5612;51.134;17.058;2022-09-09T14:05:29;1.08;;;1.08;;
2610;SDS011;5612;51.134;17.058;2022-09-09T14:08:00;5.95;;;1.38;;
2610;SDS011;5612;51.134;17.058;2022-09-09T14:10:31;1.70;;;1.60;;
2610;SDS011;5612;51.134;17.058;2022-09-09T14:13:05;1.30;;;1.30;;
2610;SDS011;5612;51.134;17.058;2022-09-09T14:15:34;3.03;;;1.60;;
2610;SDS011;5612;51.134;17.058;2022-09-09T14:18:03;2.25;;;2.05;;
2610;SDS011;5612;51.134;17.058;2022-09-09T14:20:32;1.73;;;1.58;;
2610;SDS011;5612;51.134;17.058;2022-09-09T14:23:01;1.30;;;1.30;;
2610;SDS011;5612;51.134;17.058;2022-09-09T14:25:32;1.75;;;1.65;;
2610;SDS011;5612;51.134;17.058;2022-09-09T14:28:01;1.50;;;1.40;;
2610;SDS011;5612;51.134;17.058;2022-09-09T14:30:32;1.58;;;1.48;;
2610;SDS011;5612;51.134;17.058;2022-09-09T14:33:01;1.52;;;1.27;;
2610;SDS011;5612;51.134;17.058;2022-09-09T14:35:30;1.70;;;1.60;;
2610;SDS011;5612;51.134;17.058;2022-09-09T14:37:59;2.22;;;1.55;;
2610;SDS011;5612;51.134;17.058;2022-09-09T14:40:29;1.45;;;1.35;;
2610;SDS011;5612;51.134;17.058;2022-09-09T14:42:58;1.73;;;1.63;;
2610;SDS011;5612;51.134;17.058;2022-09-09T14:45:27;2.40;;;1.50;;
2610;SDS011;5612;51.134;17.058;2022-09-09T14:47:57;1.60;;;1.50;;
2610;SDS011;5612;51.134;17.058;2022-09-09T14:50:26;1.70;;;1.63;;
2610;SDS011;5612;51.134;17.058;2022-09-09T14:52:58;2.00;;;1.90;;
2610;SDS011;5612;51.134;17.058;2022-09-09T14:55:27;2.70;;;1.70;;
2610;SDS011;5612;51.134;17.058;2022-09-09T14:57:56;3.53;;;1.83;;
2610;SDS011;5612;51.134;17.058;2022-09-09T15:00:25;1.97;;;1.87;;
2610;SDS011;5612;51.134;17.058;2022-09-09T15:02:54;1.92;;;1.83;;
2610;SDS011;5612;51.134;17.058;2022-09-09T15:05:24;3.15;;;2.38;;
2610;SDS011;5612;51.134;17.058;2022-09-09T15:07:54;1.50;;;1.40;;
2610;SDS011;5612;51.134;17.058;2022-09-09T15:10:25;1.80;;;1.70;;
2610;SDS011;5612;51.134;17.058;2022-09-09T15:12:54;1.42;;;1.35;;
2610;SDS011;5612;51.134;17.058;2022-09-09T15:15:24;1.80;;;1.70;;
2610;SDS011;5612;51.134;17.058;2022-09-09T15:17:53;2.73;;;1.80;;
2610;SDS011;5612;51.134;17.058;2022-09-09T15:20:23;2.30;;;2.20;;
2610;SDS011;5612;51.134;17.058;2022-09-09T15:22:53;1.80;;;1.80;;
2610;SDS011;5612;51.134;17.058;2022-09-09T15:25:23;2.70;;;2.20;;
2610;SDS011;5612;51.134;17.058;2022-09-09T15:27:51;2.47;;;2.07;;
2610;SDS011;5612;51.134;17.058;2022-09-09T15:30:20;2.00;;;1.87;;
2610;SDS011;5612;51.134;17.058;2022-09-09T15:32:49;3.50;;;2.50;;
2610;SDS011;5612;51.134;17.058;2022-09-09T15:35:19;2.40;;;1.93;;
2610;SDS011;5612;51.134;17.058;2022-09-09T15:37:49;2.63;;;2.07;;
2610;SDS011;5612;51.134;17.058;2022-09-09T15:40:18;2.90;;;2.00;;
2610;SDS011;5612;51.134;17.058;2022-09-09T15:42:47;2.70;;;2.20;;
